sensor_id;sensor_type;location;lat;lon;timestamp;pressure;altitude;pressure_sealevel;temperature
70050;BMP180;57391;51.306;22.680;2023-07-13T00:02:04;99267.80;;;20.20
70050;BMP180;57391;51.306;22.680;2023-07-13T00:04:31;99270.40;;;20.20
70050;BMP180;57391;51.306;22.680;2023-07-13T00:06:58;99269.60;;;20.16
70050;BMP180;57391;51.306;22.680;2023-07-13T00:09:25;99272.80;;;20.14
70050;BMP180;57391;51.306;22.680;2023-07-13T00:11:55;99265.80;;;20.10
70050;BMP180;57391;51.306;22.680;2023-07-13T00:14:25;99266.80;;;20.10
70050;BMP180;57391;51.306;22.680;2023-07-13T00:16:52;99258.60;;;20.10
70050;BMP180;57391;51.306;22.680;2023-07-13T00:19:20;99261.60;;;20.10
70050;BMP180;57391;51.306;22.680;2023-07-13T00:21:47;99258.60;;;20.00
70050;BMP180;57391;51.306;22.680;2023-07-13T00:24:16;99257.20;;;20.00
70050;BMP180;57391;51.306;22.680;2023-07-13T00:26:49;99260.60;;;20.00
70050;BMP180;57391;51.306;22.680;2023-07-13T00:29:16;99262.40;;;20.00
70050;BMP180;57391;51.306;22.680;2023-07-13T00:31:43;99260.80;;;20.00
70050;BMP180;57391;51.306;22.680;2023-07-13T00:34:11;99261.00;;;20.00
70050;BMP180;57391;51.306;22.680;2023-07-13T00:36:38;99265.80;;;20.00
70050;BMP180;57391;51.306;22.680;2023-07-13T00:39:05;99263.60;;;20.00
70050;BMP180;57391;51.306;22.680;2023-07-13T00:41:32;99270.60;;;20.00
70050;BMP180;57391;51.306;22.680;2023-07-13T00:43:59;99272.00;;;20.00
70050;BMP180;57391;51.306;22.680;2023-07-13T00:46:32;99269.60;;;20.00
70050;BMP180;57391;51.306;22.680;2023-07-13T00:49:05;99266.00;;;20.00
70050;BMP180;57391;51.306;22.680;2023-07-13T00:54:25;99265.40;;;20.00
70050;BMP180;57391;51.306;22.680;2023-07-13T00:56:59;99273.80;;;20.00
70050;BMP180;57391;51.306;22.680;2023-07-13T00:59:27;99278.20;;;20.00
70050;BMP180;57391;51.306;22.680;2023-07-13T01:01:55;99281.00;;;20.00
70050;BMP180;57391;51.306;22.680;2023-07-13T01:04:25;99281.00;;;20.00
70050;BMP180;57391;51.306;22.680;2023-07-13T01:06:52;99277.40;;;20.00
70050;BMP180;57391;51.306;22.680;2023-07-13T01:09:20;99274.00;;;20.00
70050;BMP180;57391;51.306;22.680;2023-07-13T01:11:48;99269.00;;;20.00
70050;BMP180;57391;51.306;22.680;2023-07-13T01:14:15;99264.80;;;19.96
70050;BMP180;57391;51.306;22.680;2023-07-13T01:16:47;99259.60;;;19.98
70050;BMP180;57391;51.306;22.680;2023-07-13T01:21:56;99253.20;;;19.90
70050;BMP180;57391;51.306;22.680;2023-07-13T01:24:23;99255.00;;;19.90
70050;BMP180;57391;51.306;22.680;2023-07-13T01:26:50;99254.40;;;19.90
70050;BMP180;57391;51.306;22.680;2023-07-13T01:29:17;99255.80;;;19.90
70050;BMP180;57391;51.306;22.680;2023-07-13T01:31:43;99257.20;;;19.90
70050;BMP180;57391;51.306;22.680;2023-07-13T01:34:11;99259.80;;;19.90
70050;BMP180;57391;51.306;22.680;2023-07-13T01:36:37;99265.80;;;19.90
70050;BMP180;57391;51.306;22.680;2023-07-13T01:39:06;99274.20;;;19.80
70050;BMP180;57391;51.306;22.680;2023-07-13T01:41:34;99280.20;;;19.80
70050;BMP180;57391;51.306;22.680;2023-07-13T01:44:15;99278.80;;;19.70
70050;BMP180;57391;51.306;22.680;2023-07-13T01:46:42;99282.80;;;19.70
70050;BMP180;57391;51.306;22.680;2023-07-13T01:49:09;99289.40;;;19.70
70050;BMP180;57391;51.306;22.680;2023-07-13T01:51:35;99293.80;;;19.64
70050;BMP180;57391;51.306;22.680;2023-07-13T01:54:02;99288.20;;;19.60
70050;BMP180;57391;51.306;22.680;2023-07-13T01:56:29;99285.40;;;19.60
70050;BMP180;57391;51.306;22.680;2023-07-13T01:58:56;99290.60;;;19.60
70050;BMP180;57391;51.306;22.680;2023-07-13T02:01:23;99290.40;;;19.64
70050;BMP180;57391;51.306;22.680;2023-07-13T02:03:50;99295.00;;;19.64
70050;BMP180;57391;51.306;22.680;2023-07-13T02:06:18;99298.00;;;19.62
70050;BMP180;57391;51.306;22.680;2023-07-13T02:08:44;99302.20;;;19.64
70050;BMP180;57391;51.306;22.680;2023-07-13T02:11:11;99307.60;;;19.60
70050;BMP180;57391;51.306;22.680;2023-07-13T02:13:38;99310.80;;;19.62
70050;BMP180;57391;51.306;22.680;2023-07-13T02:16:05;99308.00;;;19.66
70050;BMP180;57391;51.306;22.680;2023-07-13T02:18:33;99310.60;;;19.70
70050;BMP180;57391;51.306;22.680;2023-07-13T02:20:59;99306.00;;;19.68
70050;BMP180;57391;51.306;22.680;2023-07-13T02:23:26;99307.60;;;19.70
70050;BMP180;57391;51.306;22.680;2023-07-13T02:25:59;99312.00;;;19.70
70050;BMP180;57391;51.306;22.680;2023-07-13T02:28:26;99322.40;;;19.70
70050;BMP180;57391;51.306;22.680;2023-07-13T02:30:52;99319.00;;;19.70
70050;BMP180;57391;51.306;22.680;2023-07-13T02:33:20;99325.20;;;19.70
70050;BMP180;57391;51.306;22.680;2023-07-13T02:35:48;99330.00;;;19.70
70050;BMP180;57391;51.306;22.680;2023-07-13T02:38:15;99331.80;;;19.70
70050;BMP180;57391;51.306;22.680;2023-07-13T02:40:42;99330.40;;;19.70
70050;BMP180;57391;51.306;22.680;2023-07-13T02:43:09;99331.00;;;19.70
70050;BMP180;57391;51.306;22.680;2023-07-13T02:45:35;99331.40;;;19.70
70050;BMP180;57391;51.306;22.680;2023-07-13T02:48:03;99329.80;;;19.70
70050;BMP180;57391;51.306;22.680;2023-07-13T02:50:29;99324.60;;;19.70
70050;BMP180;57391;51.306;22.680;2023-07-13T02:52:56;99331.00;;;19.70
70050;BMP180;57391;51.306;22.680;2023-07-13T02:55:23;99327.80;;;19.70
70050;BMP180;57391;51.306;22.680;2023-07-13T02:57:50;99327.80;;;19.70
70050;BMP180;57391;51.306;22.680;2023-07-13T03:00:18;99327.80;;;19.70
70050;BMP180;57391;51.306;22.680;2023-07-13T03:02:45;99330.00;;;19.70
70050;BMP180;57391;51.306;22.680;2023-07-13T03:05:12;99338.60;;;19.72
70050;BMP180;57391;51.306;22.680;2023-07-13T03:07:40;99333.60;;;19.72
70050;BMP180;57391;51.306;22.680;2023-07-13T03:10:09;99330.80;;;19.78
70050;BMP180;57391;51.306;22.680;2023-07-13T03:12:42;99332.40;;;19.80
70050;BMP180;57391;51.306;22.680;2023-07-13T03:15:13;99336.80;;;19.80
70050;BMP180;57391;51.306;22.680;2023-07-13T03:17:41;99338.00;;;19.80
70050;BMP180;57391;51.306;22.680;2023-07-13T03:20:09;99341.00;;;19.80
70050;BMP180;57391;51.306;22.680;2023-07-13T03:22:36;99347.80;;;19.82
70050;BMP180;57391;51.306;22.680;2023-07-13T03:25:04;99350.00;;;19.84
70050;BMP180;57391;51.306;22.680;2023-07-13T03:27:31;99350.20;;;19.90
70050;BMP180;57391;51.306;22.680;2023-07-13T03:29:59;99345.00;;;19.90
70050;BMP180;57391;51.306;22.680;2023-07-13T03:32:26;99342.20;;;19.90
70050;BMP180;57391;51.306;22.680;2023-07-13T03:34:54;99342.40;;;20.00
70050;BMP180;57391;51.306;22.680;2023-07-13T03:37:20;99352.80;;;20.04
70050;BMP180;57391;51.306;22.680;2023-07-13T03:39:47;99355.00;;;20.10
70050;BMP180;57391;51.306;22.680;2023-07-13T03:42:15;99359.80;;;20.20
70050;BMP180;57391;51.306;22.680;2023-07-13T03:44:43;99349.60;;;20.30
70050;BMP180;57391;51.306;22.680;2023-07-13T03:47:19;99352.40;;;20.40
70050;BMP180;57391;51.306;22.680;2023-07-13T03:49:46;99350.00;;;20.60
70050;BMP180;57391;51.306;22.680;2023-07-13T03:52:13;99341.20;;;21.30
70050;BMP180;57391;51.306;22.680;2023-07-13T03:54:40;99346.80;;;22.16
70050;BMP180;57391;51.306;22.680;2023-07-13T03:57:08;99346.80;;;23.00
70050;BMP180;57391;51.306;22.680;2023-07-13T03:59:35;99355.20;;;23.58
70050;BMP180;57391;51.306;22.680;2023-07-13T04:02:02;99358.20;;;23.50
70050;BMP180;57391;51.306;22.680;2023-07-13T04:04:33;99361.00;;;23.50
70050;BMP180;57391;51.306;22.680;2023-07-13T04:07:00;99367.20;;;23.38
70050;BMP180;57391;51.306;22.680;2023-07-13T04:09:27;99365.80;;;23.20
70050;BMP180;57391;51.306;22.680;2023-07-13T04:11:54;99361.20;;;23.10
70050;BMP180;57391;51.306;22.680;2023-07-13T04:14:21;99348.80;;;23.44
70050;BMP180;57391;51.306;22.680;2023-07-13T04:16:47;99352.60;;;24.40
70050;BMP180;57391;51.306;22.680;2023-07-13T04:19:14;99346.60;;;25.34
70050;BMP180;57391;51.306;22.680;2023-07-13T04:21:41;99349.00;;;26.30
70050;BMP180;57391;51.306;22.680;2023-07-13T04:24:08;99346.60;;;26.96
70050;BMP180;57391;51.306;22.680;2023-07-13T04:26:35;99350.00;;;27.44
70050;BMP180;57391;51.306;22.680;2023-07-13T04:29:02;99356.80;;;28.16
70050;BMP180;57391;51.306;22.680;2023-07-13T04:31:31;99367.80;;;28.40
70050;BMP180;57391;51.306;22.680;2023-07-13T04:33:58;99368.60;;;28.30
70050;BMP180;57391;51.306;22.680;2023-07-13T04:36:25;99378.20;;;28.60
70050;BMP180;57391;51.306;22.680;2023-07-13T04:38:55;99380.00;;;28.30
70050;BMP180;57391;51.306;22.680;2023-07-13T04:41:22;99381.40;;;27.90
70050;BMP180;57391;51.306;22.680;2023-07-13T04:43:49;99385.20;;;27.46
70050;BMP180;57391;51.306;22.680;2023-07-13T04:46:17;99380.20;;;27.00
70050;BMP180;57391;51.306;22.680;2023-07-13T04:48:46;99381.40;;;26.60
70050;BMP180;57391;51.306;22.680;2023-07-13T04:51:13;99389.60;;;26.20
70050;BMP180;57391;51.306;22.680;2023-07-13T04:53:40;99389.80;;;25.90
70050;BMP180;57391;51.306;22.680;2023-07-13T04:56:06;99396.20;;;25.60
70050;BMP180;57391;51.306;22.680;2023-07-13T04:58:34;99394.00;;;25.30
70050;BMP180;57391;51.306;22.680;2023-07-13T05:01:04;99399.40;;;25.20
70050;BMP180;57391;51.306;22.680;2023-07-13T05:03:31;99399.80;;;25.00
70050;BMP180;57391;51.306;22.680;2023-07-13T05:06:01;99400.20;;;24.80
70050;BMP180;57391;51.306;22.680;2023-07-13T05:08:29;99403.00;;;24.70
70050;BMP180;57391;51.306;22.680;2023-07-13T05:10:56;99406.40;;;24.60
70050;BMP180;57391;51.306;22.680;2023-07-13T05:13:23;99409.40;;;24.50
70050;BMP180;57391;51.306;22.680;2023-07-13T05:16:02;99411.00;;;24.40
70050;BMP180;57391;51.306;22.680;2023-07-13T05:18:30;99415.40;;;24.30
70050;BMP180;57391;51.306;22.680;2023-07-13T05:21:07;99416.60;;;24.20
70050;BMP180;57391;51.306;22.680;2023-07-13T05:23:35;99420.00;;;24.20
70050;BMP180;57391;51.306;22.680;2023-07-13T05:26:03;99415.40;;;24.10
70050;BMP180;57391;51.306;22.680;2023-07-13T05:28:31;99416.60;;;24.10
70050;BMP180;57391;51.306;22.680;2023-07-13T05:30:59;99429.40;;;24.10
70050;BMP180;57391;51.306;22.680;2023-07-13T05:33:27;99437.40;;;24.10
70050;BMP180;57391;51.306;22.680;2023-07-13T05:35:54;99439.00;;;24.10
70050;BMP180;57391;51.306;22.680;2023-07-13T05:38:22;99447.60;;;24.10
70050;BMP180;57391;51.306;22.680;2023-07-13T05:40:50;99449.80;;;24.10
70050;BMP180;57391;51.306;22.680;2023-07-13T05:43:17;99452.60;;;24.10
70050;BMP180;57391;51.306;22.680;2023-07-13T05:45:44;99455.40;;;24.04
70050;BMP180;57391;51.306;22.680;2023-07-13T05:48:12;99454.60;;;24.04
70050;BMP180;57391;51.306;22.680;2023-07-13T05:50:38;99452.40;;;24.02
70050;BMP180;57391;51.306;22.680;2023-07-13T05:53:06;99453.80;;;24.02
70050;BMP180;57391;51.306;22.680;2023-07-13T05:55:33;99452.00;;;24.00
70050;BMP180;57391;51.306;22.680;2023-07-13T05:58:01;99456.20;;;24.00
70050;BMP180;57391;51.306;22.680;2023-07-13T06:00:28;99461.00;;;24.00
70050;BMP180;57391;51.306;22.680;2023-07-13T06:02:56;99467.40;;;24.00
70050;BMP180;57391;51.306;22.680;2023-07-13T06:05:23;99465.60;;;24.00
70050;BMP180;57391;51.306;22.680;2023-07-13T06:07:50;99461.80;;;24.02
70050;BMP180;57391;51.306;22.680;2023-07-13T06:10:17;99458.20;;;24.10
70050;BMP180;57391;51.306;22.680;2023-07-13T06:12:44;99459.20;;;24.10
70050;BMP180;57391;51.306;22.680;2023-07-13T06:15:11;99462.40;;;24.00
70050;BMP180;57391;51.306;22.680;2023-07-13T06:17:38;99456.60;;;24.00
70050;BMP180;57391;51.306;22.680;2023-07-13T06:20:06;99453.60;;;24.06
70050;BMP180;57391;51.306;22.680;2023-07-13T06:22:33;99453.80;;;24.20
70050;BMP180;57391;51.306;22.680;2023-07-13T06:25:00;99443.60;;;24.20
70050;BMP180;57391;51.306;22.680;2023-07-13T06:27:28;99436.00;;;24.30
70050;BMP180;57391;51.306;22.680;2023-07-13T06:29:54;99426.40;;;24.40
70050;BMP180;57391;51.306;22.680;2023-07-13T06:32:21;99424.40;;;24.50
70050;BMP180;57391;51.306;22.680;2023-07-13T06:34:48;99426.20;;;24.60
70050;BMP180;57391;51.306;22.680;2023-07-13T06:37:15;99426.60;;;24.74
70050;BMP180;57391;51.306;22.680;2023-07-13T06:39:42;99420.00;;;24.90
70050;BMP180;57391;51.306;22.680;2023-07-13T06:42:10;99417.60;;;25.00
70050;BMP180;57391;51.306;22.680;2023-07-13T06:44:37;99412.60;;;25.00
70050;BMP180;57391;51.306;22.680;2023-07-13T06:47:05;99410.40;;;25.00
70050;BMP180;57391;51.306;22.680;2023-07-13T06:49:32;99405.20;;;24.90
70050;BMP180;57391;51.306;22.680;2023-07-13T06:51:58;99403.20;;;24.80
70050;BMP180;57391;51.306;22.680;2023-07-13T06:54:25;99400.00;;;24.70
70050;BMP180;57391;51.306;22.680;2023-07-13T06:56:52;99402.80;;;24.62
70050;BMP180;57391;51.306;22.680;2023-07-13T06:59:19;99394.80;;;24.60
70050;BMP180;57391;51.306;22.680;2023-07-13T07:01:46;99390.60;;;24.50
70050;BMP180;57391;51.306;22.680;2023-07-13T07:04:13;99391.80;;;24.50
70050;BMP180;57391;51.306;22.680;2023-07-13T07:06:40;99391.60;;;24.50
70050;BMP180;57391;51.306;22.680;2023-07-13T07:09:06;99393.40;;;24.94
70050;BMP180;57391;51.306;22.680;2023-07-13T07:11:33;99396.80;;;25.54
70050;BMP180;57391;51.306;22.680;2023-07-13T07:14:00;99399.80;;;26.06
70050;BMP180;57391;51.306;22.680;2023-07-13T07:16:27;99400.00;;;26.30
70050;BMP180;57391;51.306;22.680;2023-07-13T07:18:54;99401.00;;;26.32
70050;BMP180;57391;51.306;22.680;2023-07-13T07:21:21;99395.80;;;26.56
70050;BMP180;57391;51.306;22.680;2023-07-13T07:23:51;99398.40;;;27.18
70050;BMP180;57391;51.306;22.680;2023-07-13T07:26:18;99394.20;;;27.82
70050;BMP180;57391;51.306;22.680;2023-07-13T07:28:45;99392.60;;;28.40
70050;BMP180;57391;51.306;22.680;2023-07-13T07:31:12;99399.00;;;28.84
70050;BMP180;57391;51.306;22.680;2023-07-13T07:33:39;99395.00;;;29.28
70050;BMP180;57391;51.306;22.680;2023-07-13T07:36:06;99396.80;;;29.64
70050;BMP180;57391;51.306;22.680;2023-07-13T07:38:33;99393.40;;;29.72
70050;BMP180;57391;51.306;22.680;2023-07-13T07:41:04;99395.00;;;29.80
70050;BMP180;57391;51.306;22.680;2023-07-13T07:43:31;99404.80;;;29.80
70050;BMP180;57391;51.306;22.680;2023-07-13T07:45:58;99415.20;;;29.80
70050;BMP180;57391;51.306;22.680;2023-07-13T07:48:26;99433.20;;;29.60
70050;BMP180;57391;51.306;22.680;2023-07-13T07:50:52;99442.80;;;29.40
70050;BMP180;57391;51.306;22.680;2023-07-13T07:53:19;99451.00;;;29.20
70050;BMP180;57391;51.306;22.680;2023-07-13T07:55:46;99450.20;;;29.00
70050;BMP180;57391;51.306;22.680;2023-07-13T07:58:14;99452.80;;;28.80
70050;BMP180;57391;51.306;22.680;2023-07-13T08:00:42;99449.20;;;28.48
70050;BMP180;57391;51.306;22.680;2023-07-13T08:03:09;99449.20;;;28.20
70050;BMP180;57391;51.306;22.680;2023-07-13T08:05:37;99454.00;;;28.00
70050;BMP180;57391;51.306;22.680;2023-07-13T08:08:04;99464.40;;;27.80
70050;BMP180;57391;51.306;22.680;2023-07-13T08:10:31;99465.20;;;27.70
70050;BMP180;57391;51.306;22.680;2023-07-13T08:12:58;99466.40;;;27.60
70050;BMP180;57391;51.306;22.680;2023-07-13T08:15:24;99464.80;;;27.50
70050;BMP180;57391;51.306;22.680;2023-07-13T08:17:51;99465.40;;;27.40
70050;BMP180;57391;51.306;22.680;2023-07-13T08:20:18;99469.80;;;27.30
70050;BMP180;57391;51.306;22.680;2023-07-13T08:22:45;99474.40;;;27.20
70050;BMP180;57391;51.306;22.680;2023-07-13T08:25:13;99472.40;;;27.10
70050;BMP180;57391;51.306;22.680;2023-07-13T08:27:40;99468.40;;;27.00
70050;BMP180;57391;51.306;22.680;2023-07-13T08:30:07;99471.60;;;26.86
70050;BMP180;57391;51.306;22.680;2023-07-13T08:32:36;99479.60;;;26.80
70050;BMP180;57391;51.306;22.680;2023-07-13T08:35:05;99482.80;;;26.62
70050;BMP180;57391;51.306;22.680;2023-07-13T08:37:32;99482.20;;;26.50
70050;BMP180;57391;51.306;22.680;2023-07-13T08:39:59;99485.60;;;26.40
70050;BMP180;57391;51.306;22.680;2023-07-13T08:42:37;99487.80;;;26.30
70050;BMP180;57391;51.306;22.680;2023-07-13T08:45:42;99483.40;;;26.20
70050;BMP180;57391;51.306;22.680;2023-07-13T08:48:20;99478.20;;;26.10
70050;BMP180;57391;51.306;22.680;2023-07-13T08:51:04;99475.20;;;26.10
70050;BMP180;57391;51.306;22.680;2023-07-13T08:53:43;99477.20;;;26.12
70050;BMP180;57391;51.306;22.680;2023-07-13T08:56:22;99473.00;;;26.20
70050;BMP180;57391;51.306;22.680;2023-07-13T08:58:56;99471.80;;;26.20
70050;BMP180;57391;51.306;22.680;2023-07-13T09:02:05;99469.40;;;26.20
70050;BMP180;57391;51.306;22.680;2023-07-13T09:04:49;99465.60;;;26.28
70050;BMP180;57391;51.306;22.680;2023-07-13T09:07:55;99463.40;;;26.30
70050;BMP180;57391;51.306;22.680;2023-07-13T09:10:31;99465.00;;;26.30
70050;BMP180;57391;51.306;22.680;2023-07-13T09:15:46;99457.80;;;26.30
70050;BMP180;57391;51.306;22.680;2023-07-13T09:18:36;99456.60;;;26.30
70050;BMP180;57391;51.306;22.680;2023-07-13T09:21:15;99455.40;;;26.30
70050;BMP180;57391;51.306;22.680;2023-07-13T09:23:42;99452.20;;;26.30
70050;BMP180;57391;51.306;22.680;2023-07-13T09:26:21;99448.40;;;26.30
70050;BMP180;57391;51.306;22.680;2023-07-13T09:29:11;99444.00;;;26.30
70050;BMP180;57391;51.306;22.680;2023-07-13T09:31:47;99442.60;;;26.30
70050;BMP180;57391;51.306;22.680;2023-07-13T09:34:16;99441.60;;;26.10
70050;BMP180;57391;51.306;22.680;2023-07-13T09:36:43;99439.40;;;26.00
70050;BMP180;57391;51.306;22.680;2023-07-13T09:39:24;99439.60;;;25.96
70050;BMP180;57391;51.306;22.680;2023-07-13T09:42:16;99432.60;;;25.90
70050;BMP180;57391;51.306;22.680;2023-07-13T09:45:00;99430.20;;;25.90
70050;BMP180;57391;51.306;22.680;2023-07-13T09:47:32;99431.00;;;25.88
70050;BMP180;57391;51.306;22.680;2023-07-13T09:50:05;99431.40;;;25.90
70050;BMP180;57391;51.306;22.680;2023-07-13T09:52:48;99430.60;;;25.90
70050;BMP180;57391;51.306;22.680;2023-07-13T09:55:36;99430.00;;;25.90
70050;BMP180;57391;51.306;22.680;2023-07-13T09:58:25;99433.00;;;25.90
70050;BMP180;57391;51.306;22.680;2023-07-13T10:01:01;99435.40;;;25.90
70050;BMP180;57391;51.306;22.680;2023-07-13T10:03:33;99437.60;;;25.90
70050;BMP180;57391;51.306;22.680;2023-07-13T10:06:14;99439.00;;;25.90
70050;BMP180;57391;51.306;22.680;2023-07-13T10:08:45;99432.80;;;25.90
70050;BMP180;57391;51.306;22.680;2023-07-13T10:13:54;99430.80;;;25.90
70050;BMP180;57391;51.306;22.680;2023-07-13T10:16:28;99430.20;;;25.90
70050;BMP180;57391;51.306;22.680;2023-07-13T10:19:11;99423.20;;;25.96
70050;BMP180;57391;51.306;22.680;2023-07-13T10:22:24;99419.20;;;26.00
70050;BMP180;57391;51.306;22.680;2023-07-13T10:24:53;99412.40;;;26.00
70050;BMP180;57391;51.306;22.680;2023-07-13T10:27:33;99418.40;;;26.08
70050;BMP180;57391;51.306;22.680;2023-07-13T10:30:23;99418.20;;;26.02
70050;BMP180;57391;51.306;22.680;2023-07-13T10:32:52;99411.40;;;26.00
70050;BMP180;57391;51.306;22.680;2023-07-13T10:35:22;99410.00;;;26.00
70050;BMP180;57391;51.306;22.680;2023-07-13T10:37:57;99398.60;;;26.00
70050;BMP180;57391;51.306;22.680;2023-07-13T10:41:04;99397.80;;;26.00
70050;BMP180;57391;51.306;22.680;2023-07-13T10:43:49;99391.40;;;26.00
70050;BMP180;57391;51.306;22.680;2023-07-13T10:46:22;99388.20;;;26.00
70050;BMP180;57391;51.306;22.680;2023-07-13T10:48:56;99381.40;;;26.00
70050;BMP180;57391;51.306;22.680;2023-07-13T10:51:26;99381.00;;;25.90
70050;BMP180;57391;51.306;22.680;2023-07-13T10:54:33;99385.40;;;25.90
70050;BMP180;57391;51.306;22.680;2023-07-13T10:57:20;99387.80;;;25.90
70050;BMP180;57391;51.306;22.680;2023-07-13T11:00:15;99388.20;;;25.90
70050;BMP180;57391;51.306;22.680;2023-07-13T11:02:42;99389.60;;;25.90
70050;BMP180;57391;51.306;22.680;2023-07-13T11:05:33;99391.20;;;25.90
70050;BMP180;57391;51.306;22.680;2023-07-13T11:08:38;99399.60;;;25.80
70050;BMP180;57391;51.306;22.680;2023-07-13T11:19:08;99411.40;;;25.60
70050;BMP180;57391;51.306;22.680;2023-07-13T11:27:43;99399.40;;;25.64
70050;BMP180;57391;51.306;22.680;2023-07-13T11:33:04;99395.40;;;25.64
70050;BMP180;57391;51.306;22.680;2023-07-13T11:40:55;99389.80;;;25.70
70050;BMP180;57391;51.306;22.680;2023-07-13T11:43:25;99381.60;;;25.68
70050;BMP180;57391;51.306;22.680;2023-07-13T11:45:52;99374.80;;;25.70
70050;BMP180;57391;51.306;22.680;2023-07-13T11:48:29;99368.00;;;25.70
70050;BMP180;57391;51.306;22.680;2023-07-13T11:51:04;99364.20;;;25.70
70050;BMP180;57391;51.306;22.680;2023-07-13T11:53:46;99360.40;;;25.70
70050;BMP180;57391;51.306;22.680;2023-07-13T11:56:14;99352.80;;;25.80
70050;BMP180;57391;51.306;22.680;2023-07-13T11:58:42;99351.00;;;25.80
70050;BMP180;57391;51.306;22.680;2023-07-13T12:01:20;99350.00;;;25.80
70050;BMP180;57391;51.306;22.680;2023-07-13T12:03:49;99353.80;;;25.80
70050;BMP180;57391;51.306;22.680;2023-07-13T12:06:36;99353.00;;;25.80
70050;BMP180;57391;51.306;22.680;2023-07-13T12:09:14;99353.60;;;25.80
70050;BMP180;57391;51.306;22.680;2023-07-13T12:11:44;99354.20;;;25.80
70050;BMP180;57391;51.306;22.680;2023-07-13T12:14:16;99356.40;;;25.88
70050;BMP180;57391;51.306;22.680;2023-07-13T12:16:45;99353.80;;;25.90
70050;BMP180;57391;51.306;22.680;2023-07-13T12:19:23;99352.20;;;25.86
70050;BMP180;57391;51.306;22.680;2023-07-13T12:21:56;99350.80;;;25.80
70050;BMP180;57391;51.306;22.680;2023-07-13T12:24:25;99349.20;;;25.82
70050;BMP180;57391;51.306;22.680;2023-07-13T12:27:01;99352.80;;;25.90
70050;BMP180;57391;51.306;22.680;2023-07-13T12:29:32;99361.00;;;25.90
70050;BMP180;57391;51.306;22.680;2023-07-13T12:32:00;99359.40;;;25.90
70050;BMP180;57391;51.306;22.680;2023-07-13T12:34:27;99358.60;;;25.90
70050;BMP180;57391;51.306;22.680;2023-07-13T12:37:02;99360.60;;;25.90
70050;BMP180;57391;51.306;22.680;2023-07-13T12:39:45;99354.20;;;25.90
70050;BMP180;57391;51.306;22.680;2023-07-13T12:42:28;99356.00;;;25.88
70050;BMP180;57391;51.306;22.680;2023-07-13T12:45:22;99350.20;;;25.80
70050;BMP180;57391;51.306;22.680;2023-07-13T12:47:59;99349.20;;;25.80
70050;BMP180;57391;51.306;22.680;2023-07-13T12:50:49;99347.20;;;25.80
70050;BMP180;57391;51.306;22.680;2023-07-13T12:53:23;99347.40;;;25.80
70050;BMP180;57391;51.306;22.680;2023-07-13T12:55:57;99349.60;;;25.82
70050;BMP180;57391;51.306;22.680;2023-07-13T13:01:05;99337.80;;;25.80
70050;BMP180;57391;51.306;22.680;2023-07-13T13:03:38;99332.20;;;25.80
70050;BMP180;57391;51.306;22.680;2023-07-13T13:08:48;99325.20;;;25.80
70050;BMP180;57391;51.306;22.680;2023-07-13T13:11:18;99327.80;;;25.80
70050;BMP180;57391;51.306;22.680;2023-07-13T13:13:46;99329.00;;;25.80
70050;BMP180;57391;51.306;22.680;2023-07-13T13:16:31;99334.60;;;25.80
70050;BMP180;57391;51.306;22.680;2023-07-13T13:21:37;99331.60;;;25.80
70050;BMP180;57391;51.306;22.680;2023-07-13T13:24:15;99329.20;;;25.80
70050;BMP180;57391;51.306;22.680;2023-07-13T13:26:44;99329.60;;;25.80
70050;BMP180;57391;51.306;22.680;2023-07-13T13:29:18;99324.80;;;25.80
70050;BMP180;57391;51.306;22.680;2023-07-13T13:31:47;99327.00;;;25.80
70050;BMP180;57391;51.306;22.680;2023-07-13T13:34:17;99325.40;;;25.80
70050;BMP180;57391;51.306;22.680;2023-07-13T13:36:46;99326.00;;;25.80
70050;BMP180;57391;51.306;22.680;2023-07-13T13:39:26;99325.60;;;25.80
70050;BMP180;57391;51.306;22.680;2023-07-13T13:41:54;99330.00;;;25.80
70050;BMP180;57391;51.306;22.680;2023-07-13T13:44:22;99329.00;;;25.80
70050;BMP180;57391;51.306;22.680;2023-07-13T13:46:55;99332.20;;;25.80
70050;BMP180;57391;51.306;22.680;2023-07-13T13:49:27;99336.60;;;25.82
70050;BMP180;57391;51.306;22.680;2023-07-13T13:51:55;99347.20;;;25.80
70050;BMP180;57391;51.306;22.680;2023-07-13T13:54:23;99352.80;;;25.80
70050;BMP180;57391;51.306;22.680;2023-07-13T13:56:52;99354.20;;;25.80
70050;BMP180;57391;51.306;22.680;2023-07-13T13:59:19;99354.60;;;25.80
70050;BMP180;57391;51.306;22.680;2023-07-13T14:01:48;99359.80;;;25.80
70050;BMP180;57391;51.306;22.680;2023-07-13T14:04:22;99360.20;;;25.80
70050;BMP180;57391;51.306;22.680;2023-07-13T14:06:49;99361.40;;;25.80
70050;BMP180;57391;51.306;22.680;2023-07-13T14:09:19;99364.80;;;25.80
70050;BMP180;57391;51.306;22.680;2023-07-13T14:11:49;99371.60;;;25.80
70050;BMP180;57391;51.306;22.680;2023-07-13T14:14:22;99380.00;;;25.80
70050;BMP180;57391;51.306;22.680;2023-07-13T14:16:51;99385.20;;;25.80
70050;BMP180;57391;51.306;22.680;2023-07-13T14:19:20;99385.00;;;25.70
70050;BMP180;57391;51.306;22.680;2023-07-13T14:21:47;99386.20;;;25.70
70050;BMP180;57391;51.306;22.680;2023-07-13T14:24:15;99390.80;;;25.68
70050;BMP180;57391;51.306;22.680;2023-07-13T14:26:42;99393.80;;;25.60
70050;BMP180;57391;51.306;22.680;2023-07-13T14:29:18;99397.20;;;25.60
70050;BMP180;57391;51.306;22.680;2023-07-13T14:31:45;99396.20;;;25.50
70050;BMP180;57391;51.306;22.680;2023-07-13T14:34:13;99403.80;;;25.50
70050;BMP180;57391;51.306;22.680;2023-07-13T14:36:48;99405.40;;;25.50
70050;BMP180;57391;51.306;22.680;2023-07-13T14:39:23;99411.40;;;25.50
70050;BMP180;57391;51.306;22.680;2023-07-13T14:41:54;99415.60;;;25.50
70050;BMP180;57391;51.306;22.680;2023-07-13T14:44:25;99415.00;;;25.50
70050;BMP180;57391;51.306;22.680;2023-07-13T14:46:57;99422.40;;;25.40
70050;BMP180;57391;51.306;22.680;2023-07-13T14:49:36;99425.80;;;25.40
70050;BMP180;57391;51.306;22.680;2023-07-13T14:52:16;99428.40;;;25.30
70050;BMP180;57391;51.306;22.680;2023-07-13T14:54:44;99422.20;;;25.30
70050;BMP180;57391;51.306;22.680;2023-07-13T14:57:17;99427.00;;;25.20
70050;BMP180;57391;51.306;22.680;2023-07-13T14:59:48;99433.20;;;25.18